sensor_id;sensor_type;location;lat;lon;timestamp;pressure;altitude;pressure_sealevel;temperature;humidity
39715;BME280;54166;53.172;-6.552;2023-04-06T00:01:33;98905.90;;;18.47;36.17
39715;BME280;54166;53.172;-6.552;2023-04-06T00:04:01;98905.71;;;18.11;36.10
39715;BME280;54166;53.172;-6.552;2023-04-06T00:06:29;98901.56;;;18.42;36.08
39715;BME280;54166;53.172;-6.552;2023-04-06T00:08:57;98895.38;;;18.38;36.05
39715;BME280;54166;53.172;-6.552;2023-04-06T00:11:25;98891.15;;;18.36;36.13
39715;BME280;54166;53.172;-6.552;2023-04-06T00:13:53;98883.09;;;18.32;36.08
39715;BME280;54166;53.172;-6.552;2023-04-06T00:16:21;98883.78;;;18.28;36.07
39715;BME280;54166;53.172;-6.552;2023-04-06T00:18:49;98884.49;;;18.26;35.90
39715;BME280;54166;53.172;-6.552;2023-04-06T00:21:17;98886.37;;;18.23;35.75
39715;BME280;54166;53.172;-6.552;2023-04-06T00:23:45;98889.85;;;18.21;35.68
39715;BME280;54166;53.172;-6.552;2023-04-06T00:26:13;98890.16;;;17.83;35.74
39715;BME280;54166;53.172;-6.552;2023-04-06T00:28:46;98892.06;;;18.14;35.78
39715;BME280;54166;53.172;-6.552;2023-04-06T00:31:14;98893.93;;;18.10;35.75
39715;BME280;54166;53.172;-6.552;2023-04-06T00:33:42;98894.25;;;18.06;35.66
39715;BME280;54166;53.172;-6.552;2023-04-06T00:36:10;98892.31;;;17.71;35.74
39715;BME280;54166;53.172;-6.552;2023-04-06T00:38:38;98887.89;;;17.66;35.85
39715;BME280;54166;53.172;-6.552;2023-04-06T00:41:06;98887.70;;;17.95;36.26
39715;BME280;54166;53.172;-6.552;2023-04-06T00:43:33;98886.60;;;17.90;36.42
39715;BME280;54166;53.172;-6.552;2023-04-06T00:46:01;98887.93;;;17.88;36.43
39715;BME280;54166;53.172;-6.552;2023-04-06T00:48:29;98896.25;;;18.27;36.59
39715;BME280;54166;53.172;-6.552;2023-04-06T00:50:57;98905.26;;;17.86;36.54
39715;BME280;54166;53.172;-6.552;2023-04-06T00:53:25;98912.81;;;17.84;36.60
39715;BME280;54166;53.172;-6.552;2023-04-06T00:55:53;98919.54;;;18.22;36.56
39715;BME280;54166;53.172;-6.552;2023-04-06T00:58:20;98912.57;;;18.19;36.49
39715;BME280;54166;53.172;-6.552;2023-04-06T01:00:48;98910.64;;;18.16;36.47
39715;BME280;54166;53.172;-6.552;2023-04-06T01:03:16;98910.38;;;18.13;36.54
39715;BME280;54166;53.172;-6.552;2023-04-06T01:05:44;98909.98;;;17.72;36.56
39715;BME280;54166;53.172;-6.552;2023-04-06T01:08:11;98908.84;;;18.11;36.70
39715;BME280;54166;53.172;-6.552;2023-04-06T01:10:39;98906.91;;;17.70;36.70
39715;BME280;54166;53.172;-6.552;2023-04-06T01:13:07;98908.69;;;17.66;36.39
39715;BME280;54166;53.172;-6.552;2023-04-06T01:15:36;98902.88;;;18.06;36.39
39715;BME280;54166;53.172;-6.552;2023-04-06T01:18:03;98899.08;;;17.64;36.43
39715;BME280;54166;53.172;-6.552;2023-04-06T01:20:32;98898.63;;;18.01;36.41
39715;BME280;54166;53.172;-6.552;2023-04-06T01:23:00;98901.38;;;17.59;36.65
39715;BME280;54166;53.172;-6.552;2023-04-06T01:25:28;98890.69;;;17.96;36.66
39715;BME280;54166;53.172;-6.552;2023-04-06T01:27:56;98882.94;;;17.96;36.69
39715;BME280;54166;53.172;-6.552;2023-04-06T01:30:24;98881.57;;;17.54;36.72
39715;BME280;54166;53.172;-6.552;2023-04-06T01:32:52;98882.38;;;17.92;36.65
39715;BME280;54166;53.172;-6.552;2023-04-06T01:35:20;98883.73;;;17.51;36.80
39715;BME280;54166;53.172;-6.552;2023-04-06T01:37:47;98881.69;;;17.88;36.70
39715;BME280;54166;53.172;-6.552;2023-04-06T01:40:15;98872.11;;;17.87;36.79
39715;BME280;54166;53.172;-6.552;2023-04-06T01:42:43;98868.82;;;17.46;36.86
39715;BME280;54166;53.172;-6.552;2023-04-06T01:45:11;98869.93;;;17.85;36.87
39715;BME280;54166;53.172;-6.552;2023-04-06T01:47:39;98871.55;;;17.45;37.00
39715;BME280;54166;53.172;-6.552;2023-04-06T01:50:07;98867.31;;;18.14;36.86
39715;BME280;54166;53.172;-6.552;2023-04-06T01:52:35;98862.71;;;17.41;36.89
39715;BME280;54166;53.172;-6.552;2023-04-06T01:55:03;98858.81;;;17.40;36.78
39715;BME280;54166;53.172;-6.552;2023-04-06T01:57:31;98859.66;;;17.74;36.68
39715;BME280;54166;53.172;-6.552;2023-04-06T01:59:58;98860.70;;;17.75;36.60
39715;BME280;54166;53.172;-6.552;2023-04-06T02:02:26;98859.67;;;17.72;36.52
39715;BME280;54166;53.172;-6.552;2023-04-06T02:04:54;98857.38;;;17.69;36.51
39715;BME280;54166;53.172;-6.552;2023-04-06T02:07:22;98859.81;;;17.99;36.54
39715;BME280;54166;53.172;-6.552;2023-04-06T02:09:53;98861.71;;;17.26;36.45
39715;BME280;54166;53.172;-6.552;2023-04-06T02:12:22;98862.72;;;17.22;36.47
39715;BME280;54166;53.172;-6.552;2023-04-06T02:14:50;98860.94;;;17.19;36.41
39715;BME280;54166;53.172;-6.552;2023-04-06T02:17:17;98859.03;;;17.57;36.40
39715;BME280;54166;53.172;-6.552;2023-04-06T02:19:45;98854.69;;;17.55;36.44
39715;BME280;54166;53.172;-6.552;2023-04-06T02:22:13;98854.46;;;17.85;36.39
39715;BME280;54166;53.172;-6.552;2023-04-06T02:24:40;98853.92;;;17.50;36.40
39715;BME280;54166;53.172;-6.552;2023-04-06T02:27:08;98858.79;;;17.81;36.42
39715;BME280;54166;53.172;-6.552;2023-04-06T02:29:36;98863.18;;;17.78;36.45
39715;BME280;54166;53.172;-6.552;2023-04-06T02:32:04;98862.90;;;17.76;36.39
39715;BME280;54166;53.172;-6.552;2023-04-06T02:34:32;98863.82;;;17.73;36.40
39715;BME280;54166;53.172;-6.552;2023-04-06T02:37:00;98864.19;;;16.96;36.42
39715;BME280;54166;53.172;-6.552;2023-04-06T02:39:27;98867.09;;;17.34;36.46
39715;BME280;54166;53.172;-6.552;2023-04-06T02:41:55;98868.82;;;17.31;36.47
39715;BME280;54166;53.172;-6.552;2023-04-06T02:44:23;98867.39;;;17.63;36.46
39715;BME280;54166;53.172;-6.552;2023-04-06T02:46:51;98865.68;;;17.61;36.43
39715;BME280;54166;53.172;-6.552;2023-04-06T02:49:19;98864.93;;;17.61;36.41
39715;BME280;54166;53.172;-6.552;2023-04-06T02:51:46;98866.41;;;17.58;36.48
39715;BME280;54166;53.172;-6.552;2023-04-06T02:54:14;98867.89;;;17.22;36.48
39715;BME280;54166;53.172;-6.552;2023-04-06T02:56:42;98867.55;;;17.53;36.48
39715;BME280;54166;53.172;-6.552;2023-04-06T02:59:15;98865.32;;;17.17;36.48
39715;BME280;54166;53.172;-6.552;2023-04-06T03:01:43;98866.50;;;17.46;36.50
39715;BME280;54166;53.172;-6.552;2023-04-06T03:04:11;98868.46;;;17.11;36.53
39715;BME280;54166;53.172;-6.552;2023-04-06T03:06:38;98864.18;;;17.43;36.52
39715;BME280;54166;53.172;-6.552;2023-04-06T03:09:06;98863.28;;;17.40;36.52
39715;BME280;54166;53.172;-6.552;2023-04-06T03:11:34;98868.55;;;17.37;36.58
39715;BME280;54166;53.172;-6.552;2023-04-06T03:14:02;98873.40;;;17.35;36.53
39715;BME280;54166;53.172;-6.552;2023-04-06T03:16:30;98873.95;;;17.33;36.53
39715;BME280;54166;53.172;-6.552;2023-04-06T03:19:03;98874.47;;;17.31;36.56
39715;BME280;54166;53.172;-6.552;2023-04-06T03:21:31;98876.09;;;17.28;36.61
39715;BME280;54166;53.172;-6.552;2023-04-06T03:24:01;98877.22;;;17.26;36.52
39715;BME280;54166;53.172;-6.552;2023-04-06T03:26:29;98878.09;;;17.25;36.53
39715;BME280;54166;53.172;-6.552;2023-04-06T03:28:56;98878.25;;;16.92;36.50
39715;BME280;54166;53.172;-6.552;2023-04-06T03:31:25;98877.40;;;17.21;36.49
39715;BME280;54166;53.172;-6.552;2023-04-06T03:33:53;98870.62;;;17.18;36.47
39715;BME280;54166;53.172;-6.552;2023-04-06T03:36:21;98865.57;;;17.16;36.53
39715;BME280;54166;53.172;-6.552;2023-04-06T03:38:49;98863.87;;;17.14;36.52
39715;BME280;54166;53.172;-6.552;2023-04-06T03:41:16;98861.71;;;16.79;36.57
39715;BME280;54166;53.172;-6.552;2023-04-06T03:43:44;98857.83;;;16.77;36.52
39715;BME280;54166;53.172;-6.552;2023-04-06T03:46:12;98859.65;;;17.08;36.52
39715;BME280;54166;53.172;-6.552;2023-04-06T03:48:40;98860.76;;;17.07;36.51
39715;BME280;54166;53.172;-6.552;2023-04-06T03:51:08;98857.18;;;17.05;36.56
39715;BME280;54166;53.172;-6.552;2023-04-06T03:53:35;98855.37;;;17.03;36.62
39715;BME280;54166;53.172;-6.552;2023-04-06T03:56:04;98853.61;;;17.01;36.62
39715;BME280;54166;53.172;-6.552;2023-04-06T03:58:32;98853.17;;;17.38;36.62
39715;BME280;54166;53.172;-6.552;2023-04-06T04:01:00;98854.30;;;16.98;36.60
39715;BME280;54166;53.172;-6.552;2023-04-06T04:03:28;98856.06;;;16.96;36.63
39715;BME280;54166;53.172;-6.552;2023-04-06T04:05:56;98859.89;;;16.94;36.62
39715;BME280;54166;53.172;-6.552;2023-04-06T04:08:25;98863.92;;;16.93;36.67
39715;BME280;54166;53.172;-6.552;2023-04-06T04:10:53;98867.52;;;16.91;36.67
39715;BME280;54166;53.172;-6.552;2023-04-06T04:13:20;98866.84;;;16.90;36.63
39715;BME280;54166;53.172;-6.552;2023-04-06T04:15:48;98865.84;;;16.87;36.65
39715;BME280;54166;53.172;-6.552;2023-04-06T04:18:16;98865.74;;;16.86;36.66
39715;BME280;54166;53.172;-6.552;2023-04-06T04:20:44;98867.67;;;16.85;36.66
39715;BME280;54166;53.172;-6.552;2023-04-06T04:23:11;98869.59;;;16.81;36.70
39715;BME280;54166;53.172;-6.552;2023-04-06T04:25:41;98868.41;;;16.45;36.71
39715;BME280;54166;53.172;-6.552;2023-04-06T04:28:08;98868.86;;;16.77;36.69
39715;BME280;54166;53.172;-6.552;2023-04-06T04:30:36;98867.06;;;16.75;36.74
39715;BME280;54166;53.172;-6.552;2023-04-06T04:33:04;98866.87;;;16.73;36.74
39715;BME280;54166;53.172;-6.552;2023-04-06T04:35:32;98868.28;;;16.73;36.74
39715;BME280;54166;53.172;-6.552;2023-04-06T04:38:00;98870.07;;;16.73;36.74
39715;BME280;54166;53.172;-6.552;2023-04-06T04:40:28;98870.76;;;16.70;36.77
39715;BME280;54166;53.172;-6.552;2023-04-06T04:42:56;98872.69;;;17.40;36.77
39715;BME280;54166;53.172;-6.552;2023-04-06T04:45:24;98874.74;;;16.64;36.80
39715;BME280;54166;53.172;-6.552;2023-04-06T04:47:51;98879.36;;;16.63;36.78
39715;BME280;54166;53.172;-6.552;2023-04-06T04:50:24;98879.66;;;17.01;36.80
39715;BME280;54166;53.172;-6.552;2023-04-06T04:53:53;98884.36;;;17.96;36.90
39715;BME280;54166;53.172;-6.552;2023-04-06T04:56:21;98889.56;;;16.46;36.95
39715;BME280;54166;53.172;-6.552;2023-04-06T04:58:48;98889.52;;;16.49;36.94
39715;BME280;54166;53.172;-6.552;2023-04-06T05:01:16;98892.35;;;16.91;36.89
39715;BME280;54166;53.172;-6.552;2023-04-06T05:03:44;98888.70;;;16.90;36.87
39715;BME280;54166;53.172;-6.552;2023-04-06T05:06:12;98887.65;;;16.52;36.85
39715;BME280;54166;53.172;-6.552;2023-04-06T05:08:40;98886.41;;;16.89;36.89
39715;BME280;54166;53.172;-6.552;2023-04-06T05:11:08;98889.85;;;16.48;36.90
39715;BME280;54166;53.172;-6.552;2023-04-06T05:13:36;98893.23;;;16.50;36.90
39715;BME280;54166;53.172;-6.552;2023-04-06T05:16:04;98893.22;;;16.45;36.89
39715;BME280;54166;53.172;-6.552;2023-04-06T05:18:33;98895.30;;;16.45;36.91
39715;BME280;54166;53.172;-6.552;2023-04-06T05:21:01;98898.23;;;16.43;36.88
39715;BME280;54166;53.172;-6.552;2023-04-06T05:23:29;98900.86;;;16.41;36.91
39715;BME280;54166;53.172;-6.552;2023-04-06T05:25:57;98900.64;;;16.43;36.85
39715;BME280;54166;53.172;-6.552;2023-04-06T05:28:25;98901.99;;;16.42;36.84
39715;BME280;54166;53.172;-6.552;2023-04-06T05:30:53;98905.14;;;16.39;36.84
39715;BME280;54166;53.172;-6.552;2023-04-06T05:33:21;98910.00;;;16.37;36.84
39715;BME280;54166;53.172;-6.552;2023-04-06T05:35:49;98912.56;;;16.76;36.84
39715;BME280;54166;53.172;-6.552;2023-04-06T05:38:17;98911.11;;;16.34;36.84
39715;BME280;54166;53.172;-6.552;2023-04-06T05:40:44;98908.66;;;16.73;36.84
39715;BME280;54166;53.172;-6.552;2023-04-06T05:43:12;98904.82;;;16.31;36.81
39715;BME280;54166;53.172;-6.552;2023-04-06T05:45:40;98905.96;;;16.71;36.83
39715;BME280;54166;53.172;-6.552;2023-04-06T05:48:08;98910.45;;;16.34;36.78
39715;BME280;54166;53.172;-6.552;2023-04-06T05:50:36;98916.74;;;17.05;36.83
39715;BME280;54166;53.172;-6.552;2023-04-06T05:53:04;98916.16;;;16.69;36.81
39715;BME280;54166;53.172;-6.552;2023-04-06T05:55:31;98918.82;;;16.26;36.84
39715;BME280;54166;53.172;-6.552;2023-04-06T05:58:00;98919.05;;;16.24;36.83
39715;BME280;54166;53.172;-6.552;2023-04-06T06:00:28;98918.72;;;16.22;36.79
39715;BME280;54166;53.172;-6.552;2023-04-06T06:02:56;98921.50;;;16.21;36.83
39715;BME280;54166;53.172;-6.552;2023-04-06T06:05:24;98924.27;;;16.60;36.84
39715;BME280;54166;53.172;-6.552;2023-04-06T06:07:52;98929.16;;;16.60;36.84
39715;BME280;54166;53.172;-6.552;2023-04-06T06:10:20;98929.15;;;16.17;36.83
39715;BME280;54166;53.172;-6.552;2023-04-06T06:12:48;98934.65;;;16.58;36.84
39715;BME280;54166;53.172;-6.552;2023-04-06T06:15:16;98938.36;;;16.89;36.84
39715;BME280;54166;53.172;-6.552;2023-04-06T06:17:43;98939.16;;;16.15;36.83
39715;BME280;54166;53.172;-6.552;2023-04-06T06:20:12;98943.36;;;16.15;36.87
39715;BME280;54166;53.172;-6.552;2023-04-06T06:22:40;98944.09;;;16.11;36.86
39715;BME280;54166;53.172;-6.552;2023-04-06T06:25:08;98942.35;;;16.51;36.87
39715;BME280;54166;53.172;-6.552;2023-04-06T06:27:36;98948.17;;;16.83;36.89
39715;BME280;54166;53.172;-6.552;2023-04-06T06:30:05;98948.35;;;16.51;36.84
39715;BME280;54166;53.172;-6.552;2023-04-06T06:32:33;98946.07;;;16.07;36.91
39715;BME280;54166;53.172;-6.552;2023-04-06T06:35:01;98944.05;;;16.08;36.89
39715;BME280;54166;53.172;-6.552;2023-04-06T06:37:28;98945.19;;;16.06;36.89
39715;BME280;54166;53.172;-6.552;2023-04-06T06:39:56;98948.17;;;16.46;36.88
39715;BME280;54166;53.172;-6.552;2023-04-06T06:42:24;98953.79;;;16.02;36.90
39715;BME280;54166;53.172;-6.552;2023-04-06T06:44:53;98959.59;;;16.41;36.93
39715;BME280;54166;53.172;-6.552;2023-04-06T06:47:22;98958.40;;;16.72;36.96
39715;BME280;54166;53.172;-6.552;2023-04-06T06:49:49;98958.38;;;16.71;36.96
39715;BME280;54166;53.172;-6.552;2023-04-06T06:52:17;98957.74;;;16.37;36.92
39715;BME280;54166;53.172;-6.552;2023-04-06T06:54:45;98961.03;;;16.36;36.93
39715;BME280;54166;53.172;-6.552;2023-04-06T06:57:13;98963.86;;;16.35;36.94
39715;BME280;54166;53.172;-6.552;2023-04-06T06:59:41;98965.41;;;16.34;36.95
39715;BME280;54166;53.172;-6.552;2023-04-06T07:02:08;98967.02;;;16.66;36.96
39715;BME280;54166;53.172;-6.552;2023-04-06T07:04:36;98967.54;;;16.32;36.94
39715;BME280;54166;53.172;-6.552;2023-04-06T07:07:04;98967.61;;;16.31;36.97
39715;BME280;54166;53.172;-6.552;2023-04-06T07:09:32;98966.28;;;16.63;36.97
39715;BME280;54166;53.172;-6.552;2023-04-06T07:12:00;98968.75;;;16.62;37.01
39715;BME280;54166;53.172;-6.552;2023-04-06T07:14:28;98971.32;;;16.62;37.25
39715;BME280;54166;53.172;-6.552;2023-04-06T07:16:56;98976.21;;;16.65;37.37
39715;BME280;54166;53.172;-6.552;2023-04-06T07:19:24;98977.43;;;16.32;37.39
39715;BME280;54166;53.172;-6.552;2023-04-06T07:21:52;98979.20;;;16.31;37.35
39715;BME280;54166;53.172;-6.552;2023-04-06T07:24:19;98976.88;;;16.62;37.23
39715;BME280;54166;53.172;-6.552;2023-04-06T07:26:47;98982.15;;;16.27;37.20
39715;BME280;54166;53.172;-6.552;2023-04-06T07:29:15;98983.43;;;16.59;37.23
39715;BME280;54166;53.172;-6.552;2023-04-06T07:31:43;98987.70;;;16.59;37.25
39715;BME280;54166;53.172;-6.552;2023-04-06T07:34:11;98992.93;;;15.84;37.24
39715;BME280;54166;53.172;-6.552;2023-04-06T07:36:39;98995.53;;;16.23;37.21
39715;BME280;54166;53.172;-6.552;2023-04-06T07:39:07;98991.29;;;16.56;37.21
39715;BME280;54166;53.172;-6.552;2023-04-06T07:41:35;98991.47;;;16.22;37.22
39715;BME280;54166;53.172;-6.552;2023-04-06T07:44:03;98993.50;;;16.20;37.26
39715;BME280;54166;53.172;-6.552;2023-04-06T07:46:31;98989.39;;;16.21;37.20
39715;BME280;54166;53.172;-6.552;2023-04-06T07:49:00;98993.52;;;16.53;37.19
39715;BME280;54166;53.172;-6.552;2023-04-06T07:51:27;98996.48;;;16.17;37.22
39715;BME280;54166;53.172;-6.552;2023-04-06T07:54:00;99000.31;;;16.49;37.24
39715;BME280;54166;53.172;-6.552;2023-04-06T07:56:28;98999.97;;;16.47;37.28
39715;BME280;54166;53.172;-6.552;2023-04-06T07:58:56;99002.34;;;16.47;37.24
39715;BME280;54166;53.172;-6.552;2023-04-06T08:01:24;99004.66;;;16.45;37.30
39715;BME280;54166;53.172;-6.552;2023-04-06T08:03:52;99004.37;;;16.46;37.31
39715;BME280;54166;53.172;-6.552;2023-04-06T08:06:19;99009.90;;;16.45;37.27
39715;BME280;54166;53.172;-6.552;2023-04-06T08:08:47;99011.14;;;15.72;37.30
39715;BME280;54166;53.172;-6.552;2023-04-06T08:11:15;99013.33;;;16.45;37.30
39715;BME280;54166;53.172;-6.552;2023-04-06T08:13:43;99013.04;;;16.10;37.35
39715;BME280;54166;53.172;-6.552;2023-04-06T08:16:11;99020.27;;;16.09;37.31
39715;BME280;54166;53.172;-6.552;2023-04-06T08:18:38;99024.41;;;16.43;37.37
39715;BME280;54166;53.172;-6.552;2023-04-06T08:21:06;99024.04;;;16.42;37.39
39715;BME280;54166;53.172;-6.552;2023-04-06T08:23:34;99025.30;;;16.45;37.53
39715;BME280;54166;53.172;-6.552;2023-04-06T08:26:07;99027.29;;;16.44;37.50
39715;BME280;54166;53.172;-6.552;2023-04-06T08:28:40;99029.00;;;16.43;37.49
39715;BME280;54166;53.172;-6.552;2023-04-06T08:31:08;99029.28;;;16.42;37.43
39715;BME280;54166;53.172;-6.552;2023-04-06T08:33:36;99032.50;;;16.09;37.40
39715;BME280;54166;53.172;-6.552;2023-04-06T08:36:09;99037.22;;;15.70;37.40
39715;BME280;54166;53.172;-6.552;2023-04-06T08:38:37;99040.65;;;16.41;37.40
39715;BME280;54166;53.172;-6.552;2023-04-06T08:41:08;99045.31;;;16.08;37.42
39715;BME280;54166;53.172;-6.552;2023-04-06T08:43:43;99045.60;;;16.37;37.54
39715;BME280;54166;53.172;-6.552;2023-04-06T08:46:11;99048.76;;;16.36;37.63
39715;BME280;54166;53.172;-6.552;2023-04-06T08:48:44;99050.09;;;16.37;37.55
39715;BME280;54166;53.172;-6.552;2023-04-06T08:51:12;99054.50;;;16.38;37.49
39715;BME280;54166;53.172;-6.552;2023-04-06T08:53:40;99056.37;;;16.39;37.55
39715;BME280;54166;53.172;-6.552;2023-04-06T08:56:09;99062.17;;;16.40;37.64
39715;BME280;54166;53.172;-6.552;2023-04-06T08:58:40;99064.32;;;16.38;37.62
39715;BME280;54166;53.172;-6.552;2023-04-06T09:01:10;99064.39;;;16.08;37.77
39715;BME280;54166;53.172;-6.552;2023-04-06T09:03:39;99069.07;;;16.45;37.79
39715;BME280;54166;53.172;-6.552;2023-04-06T09:06:09;99068.77;;;16.46;37.75
39715;BME280;54166;53.172;-6.552;2023-04-06T09:08:42;99070.61;;;16.13;37.75
39715;BME280;54166;53.172;-6.552;2023-04-06T09:11:10;99077.66;;;16.15;37.73
39715;BME280;54166;53.172;-6.552;2023-04-06T09:13:47;99083.45;;;16.14;37.75
39715;BME280;54166;53.172;-6.552;2023-04-06T09:16:18;99089.15;;;16.11;37.78
39715;BME280;54166;53.172;-6.552;2023-04-06T09:18:46;99097.12;;;16.45;37.70
39715;BME280;54166;53.172;-6.552;2023-04-06T09:21:17;99094.09;;;16.45;37.74
39715;BME280;54166;53.172;-6.552;2023-04-06T09:23:45;99097.00;;;16.45;37.73
39715;BME280;54166;53.172;-6.552;2023-04-06T09:26:16;99101.38;;;16.12;37.71
39715;BME280;54166;53.172;-6.552;2023-04-06T09:28:53;99103.85;;;16.47;37.70
39715;BME280;54166;53.172;-6.552;2023-04-06T09:31:24;99106.72;;;16.11;37.75
39715;BME280;54166;53.172;-6.552;2023-04-06T09:33:53;99110.11;;;16.46;37.74
39715;BME280;54166;53.172;-6.552;2023-04-06T09:36:30;99111.97;;;16.13;37.73
39715;BME280;54166;53.172;-6.552;2023-04-06T09:39:01;99117.27;;;16.43;37.75
39715;BME280;54166;53.172;-6.552;2023-04-06T09:41:30;99121.83;;;16.43;37.75
39715;BME280;54166;53.172;-6.552;2023-04-06T09:44:07;99127.39;;;16.11;37.73
39715;BME280;54166;53.172;-6.552;2023-04-06T09:46:37;99133.08;;;16.42;37.84
39715;BME280;54166;53.172;-6.552;2023-04-06T09:49:06;99132.17;;;16.44;37.88
39715;BME280;54166;53.172;-6.552;2023-04-06T09:51:38;99136.92;;;16.45;37.86
39715;BME280;54166;53.172;-6.552;2023-04-06T09:54:07;99136.43;;;16.12;37.88
39715;BME280;54166;53.172;-6.552;2023-04-06T09:56:43;99137.55;;;16.44;37.84
39715;BME280;54166;53.172;-6.552;2023-04-06T09:59:18;99135.47;;;16.44;37.87
39715;BME280;54166;53.172;-6.552;2023-04-06T10:01:48;99141.95;;;16.45;38.03
39715;BME280;54166;53.172;-6.552;2023-04-06T10:04:26;99141.96;;;16.45;37.99
39715;BME280;54166;53.172;-6.552;2023-04-06T10:06:57;99143.49;;;16.44;37.85
39715;BME280;54166;53.172;-6.552;2023-04-06T10:09:28;99147.58;;;16.09;37.77
39715;BME280;54166;53.172;-6.552;2023-04-06T10:11:58;99146.98;;;16.12;37.86
39715;BME280;54166;53.172;-6.552;2023-04-06T10:14:26;99150.70;;;16.48;38.14
39715;BME280;54166;53.172;-6.552;2023-04-06T10:16:54;99156.28;;;16.51;38.59
39715;BME280;54166;53.172;-6.552;2023-04-06T10:19:26;99159.76;;;15.76;38.77
39715;BME280;54166;53.172;-6.552;2023-04-06T10:21:58;99157.67;;;15.75;38.62
39715;BME280;54166;53.172;-6.552;2023-04-06T10:24:28;99163.44;;;16.15;38.52
39715;BME280;54166;53.172;-6.552;2023-04-06T10:27:00;99167.42;;;16.49;38.50
39715;BME280;54166;53.172;-6.552;2023-04-06T10:29:28;99166.59;;;16.47;38.44
39715;BME280;54166;53.172;-6.552;2023-04-06T10:31:56;99175.82;;;16.45;38.26
39715;BME280;54166;53.172;-6.552;2023-04-06T10:34:35;99174.27;;;16.48;38.24
39715;BME280;54166;53.172;-6.552;2023-04-06T10:37:12;99172.93;;;16.46;38.20
39715;BME280;54166;53.172;-6.552;2023-04-06T10:39:49;99175.18;;;16.43;38.20
39715;BME280;54166;53.172;-6.552;2023-04-06T10:42:24;99180.44;;;16.43;38.48
39715;BME280;54166;53.172;-6.552;2023-04-06T10:44:55;99181.04;;;16.41;38.37
39715;BME280;54166;53.172;-6.552;2023-04-06T10:47:24;99184.11;;;15.72;38.38
39715;BME280;54166;53.172;-6.552;2023-04-06T10:49:52;99181.40;;;16.17;38.35
39715;BME280;54166;53.172;-6.552;2023-04-06T10:52:21;99178.77;;;16.54;38.25
39715;BME280;54166;53.172;-6.552;2023-04-06T10:54:48;99183.83;;;16.57;38.25
39715;BME280;54166;53.172;-6.552;2023-04-06T10:57:28;99180.54;;;16.58;38.06
39715;BME280;54166;53.172;-6.552;2023-04-06T10:59:56;99182.16;;;16.55;38.13
39715;BME280;54166;53.172;-6.552;2023-04-06T11:02:24;99183.38;;;16.21;38.10
39715;BME280;54166;53.172;-6.552;2023-04-06T11:04:56;99187.67;;;16.56;38.25
39715;BME280;54166;53.172;-6.552;2023-04-06T11:07:25;99191.11;;;15.80;38.57
39715;BME280;54166;53.172;-6.552;2023-04-06T11:09:54;99192.60;;;16.23;38.44
39715;BME280;54166;53.172;-6.552;2023-04-06T11:12:24;99193.78;;;16.57;38.45
39715;BME280;54166;53.172;-6.552;2023-04-06T11:14:55;99195.49;;;16.55;38.45
39715;BME280;54166;53.172;-6.552;2023-04-06T11:17:26;99194.89;;;16.56;38.46
39715;BME280;54166;53.172;-6.552;2023-04-06T11:19:55;99199.51;;;15.84;38.44
39715;BME280;54166;53.172;-6.552;2023-04-06T11:22:24;99204.74;;;16.57;38.44
39715;BME280;54166;53.172;-6.552;2023-04-06T11:25:04;99207.07;;;16.57;38.40
39715;BME280;54166;53.172;-6.552;2023-04-06T11:27:33;99210.82;;;16.20;38.35
39715;BME280;54166;53.172;-6.552;2023-04-06T11:30:01;99212.09;;;16.53;38.41
39715;BME280;54166;53.172;-6.552;2023-04-06T11:32:38;99215.18;;;16.19;38.66
39715;BME280;54166;53.172;-6.552;2023-04-06T11:35:07;99213.71;;;16.52;38.55
39715;BME280;54166;53.172;-6.552;2023-04-06T11:37:35;99215.93;;;16.55;38.63
39715;BME280;54166;53.172;-6.552;2023-04-06T11:40:03;99218.59;;;16.57;38.73
39715;BME280;54166;53.172;-6.552;2023-04-06T11:42:36;99219.18;;;16.60;38.76
39715;BME280;54166;53.172;-6.552;2023-04-06T11:45:04;99221.44;;;16.33;38.56
39715;BME280;54166;53.172;-6.552;2023-04-06T11:47:36;99222.39;;;16.72;38.64
39715;BME280;54166;53.172;-6.552;2023-04-06T11:50:10;99221.75;;;16.44;38.79
39715;BME280;54166;53.172;-6.552;2023-04-06T11:52:40;99225.17;;;16.03;38.88
39715;BME280;54166;53.172;-6.552;2023-04-06T11:55:14;99227.93;;;16.44;38.94
39715;BME280;54166;53.172;-6.552;2023-04-06T11:57:43;99228.98;;;16.79;38.99
39715;BME280;54166;53.172;-6.552;2023-04-06T12:00:12;99230.38;;;16.82;38.94
39715;BME280;54166;53.172;-6.552;2023-04-06T12:02:46;99230.55;;;16.84;38.97
39715;BME280;54166;53.172;-6.552;2023-04-06T12:05:15;99230.59;;;16.11;38.95
39715;BME280;54166;53.172;-6.552;2023-04-06T12:07:43;99230.65;;;16.10;38.97
39715;BME280;54166;53.172;-6.552;2023-04-06T12:10:11;99227.69;;;16.51;39.10
39715;BME280;54166;53.172;-6.552;2023-04-06T12:12:39;99227.49;;;16.51;39.11
39715;BME280;54166;53.172;-6.552;2023-04-06T12:15:07;99228.51;;;16.09;39.14
39715;BME280;54166;53.172;-6.552;2023-04-06T12:17:35;99231.04;;;16.09;39.20
39715;BME280;54166;53.172;-6.552;2023-04-06T12:20:04;99231.30;;;16.48;39.18
39715;BME280;54166;53.172;-6.552;2023-04-06T12:22:32;99235.64;;;16.48;39.34
39715;BME280;54166;53.172;-6.552;2023-04-06T12:25:00;99234.24;;;16.84;39.29
39715;BME280;54166;53.172;-6.552;2023-04-06T12:27:28;99237.84;;;16.54;39.34
39715;BME280;54166;53.172;-6.552;2023-04-06T12:29:55;99237.04;;;16.18;39.23
39715;BME280;54166;53.172;-6.552;2023-04-06T12:32:23;99239.86;;;16.58;39.24
39715;BME280;54166;53.172;-6.552;2023-04-06T12:34:52;99239.80;;;16.61;39.23
39715;BME280;54166;53.172;-6.552;2023-04-06T12:37:20;99241.96;;;16.22;39.30
39715;BME280;54166;53.172;-6.552;2023-04-06T12:39:47;99242.17;;;16.66;39.32
39715;BME280;54166;53.172;-6.552;2023-04-06T12:42:15;99245.89;;;16.69;39.36
39715;BME280;54166;53.172;-6.552;2023-04-06T12:44:43;99241.42;;;17.04;39.55
39715;BME280;54166;53.172;-6.552;2023-04-06T12:47:11;99243.55;;;16.68;39.73
39715;BME280;54166;53.172;-6.552;2023-04-06T12:49:38;99246.01;;;16.69;39.76
39715;BME280;54166;53.172;-6.552;2023-04-06T12:52:06;99246.99;;;17.10;39.79
39715;BME280;54166;53.172;-6.552;2023-04-06T12:54:34;99248.65;;;16.41;39.87
39715;BME280;54166;53.172;-6.552;2023-04-06T12:57:02;99245.13;;;17.23;39.92
39715;BME280;54166;53.172;-6.552;2023-04-06T12:59:30;99250.54;;;16.53;39.90